Time;durP1;ratioP1;P1;durP2;ratioP2;P2;SDS_P1;SDS_P2;PMS_P1;PMS_P2;Temp;Humidity;BMP_temperature;BMP_pressure;BME280_temperature;BME280_humidity;BME280_pressure;Samples;Min_cycle;Max_cycle;Signal;HPM_P1;HPM_P2
2022/08/03 00:00:26;;;;;;;;;3.00;3.00;;;;;24.29;51.55;98728.22;4943925;28;102521;-93
2022/08/03 00:02:53;;;;;;;;;3.33;3.33;;;;;24.30;51.47;98729.06;4926457;28;102453;-92
2022/08/03 00:05:20;;;;;;;;;2.67;2.67;;;;;24.31;51.51;98725.19;4936731;28;103702;-93
2022/08/03 00:07:47;;;;;;;;;2.33;2.33;;;;;24.30;51.54;98735.41;4930326;28;102661;-92
2022/08/03 00:10:15;;;;;;;;;3.33;3.33;;;;;24.30;51.68;98729.06;4923882;28;102460;-92
2022/08/03 00:12:42;;;;;;;;;2.33;2.33;;;;;24.27;51.61;98735.19;4929441;28;102729;-92
2022/08/03 00:15:10;;;;;;;;;2.67;2.67;;;;;24.29;51.72;98725.47;4918015;28;104230;-92
2022/08/03 00:17:43;;;;;;;;;3.00;3.00;;;;;24.28;51.70;98728.50;4928057;28;104659;-92
2022/08/03 00:20:22;;;;;;;;;3.00;3.00;;;;;24.28;51.78;98734.03;4927271;28;102414;-92
2022/08/03 00:22:50;;;;;;;;;4.00;4.00;;;;;24.26;51.78;98733.50;4942967;28;104979;-92
2022/08/03 00:25:18;;;;;;;;;2.67;2.67;;;;;24.24;51.56;98730.19;4922084;28;105633;-93
2022/08/03 00:27:45;;;;;;;;;3.00;3.00;;;;;24.22;51.56;98726.91;4923109;28;102269;-92
2022/08/03 00:30:14;;;;;;;;;3.33;2.67;;;;;24.19;51.80;98722.78;4925066;28;104462;-92
2022/08/03 00:32:43;;;;;;;;;3.33;3.00;;;;;24.22;51.61;98729.69;4901528;28;104327;-92
2022/08/03 00:35:11;;;;;;;;;3.00;3.00;;;;;24.19;51.67;98730.22;4894608;28;104480;-92
2022/08/03 00:37:58;;;;;;;;;3.00;2.00;;;;;24.20;51.82;98734.66;4892615;28;104440;-93
2022/08/03 00:40:26;;;;;;;;;4.00;4.00;;;;;24.17;52.03;98724.19;4919476;28;104740;-92
2022/08/03 00:42:57;;;;;;;;;3.00;3.00;;;;;24.19;51.67;98731.06;4936543;28;104762;-92
2022/08/03 00:45:29;;;;;;;;;3.00;3.00;;;;;24.19;51.80;98722.78;4938633;28;104605;-92
2022/08/03 00:47:56;;;;;;;;;3.00;3.00;;;;;24.17;51.62;98730.53;4940677;28;102661;-92
2022/08/03 00:50:24;;;;;;;;;2.33;2.33;;;;;24.19;51.85;98724.69;4910619;28;102857;-92
2022/08/03 00:52:53;;;;;;;;;3.00;3.00;;;;;24.17;51.87;98730.53;4942917;28;102898;-91
2022/08/03 00:55:20;;;;;;;;;4.00;4.00;;;;;24.14;51.74;98722.75;4937537;28;104405;-93
2022/08/03 00:57:47;;;;;;;;;5.00;4.00;;;;;24.15;51.74;98720.84;4943163;28;102116;-93
2022/08/03 01:00:16;;;;;;;;;3.00;3.00;;;;;24.14;51.81;98724.69;4943565;28;102613;-91
2022/08/03 01:02:43;;;;;;;;;3.00;3.00;;;;;24.13;51.73;98723.06;4873503;28;103491;-92
2022/08/03 01:05:10;;;;;;;;;3.00;3.00;;;;;24.12;51.72;98729.69;4924625;28;104073;-91
2022/08/03 01:08:12;;;;;;;;;0.00;0.00;;;;;24.13;51.83;98731.34;4927213;28;102542;-91
2022/08/03 01:11:01;;;;;;;;;3.00;3.00;;;;;24.11;51.90;98731.63;4886697;28;102746;-92
2022/08/03 01:13:44;;;;;;;;;4.67;4.67;;;;;24.13;51.82;98734.94;4927476;28;102510;-93
2022/08/03 01:16:53;;;;;;;;;2.33;2.33;;;;;24.10;51.94;98729.16;4918234;28;110303;-92
2022/08/03 01:19:45;;;;;;;;;3.00;2.00;;;;;24.11;51.80;98730.81;4926231;28;102497;-93
2022/08/03 01:22:15;;;;;;;;;2.67;2.67;;;;;24.12;51.73;98732.47;4928110;28;102019;-92
2022/08/03 01:25:04;;;;;;;;;3.33;3.00;;;;;24.12;51.59;98726.94;4938812;28;102837;-92
2022/08/03 01:28:09;;;;;;;;;3.00;3.00;;;;;24.09;51.91;98725.56;4926087;28;110188;-92
2022/08/03 01:30:37;;;;;;;;;3.67;3.67;;;;;24.11;51.54;98748.22;4910490;28;103599;-93
2022/08/03 01:33:11;;;;;;;;;4.00;4.00;;;;;24.10;51.74;98740.19;4926349;28;102569;-92
2022/08/03 01:35:44;;;;;;;;;2.67;2.67;;;;;24.09;51.75;98733.03;4928742;28;102442;-92
2022/08/03 01:38:14;;;;;;;;;3.67;3.67;;;;;24.07;52.07;98729.72;4929658;28;104046;-92
2022/08/03 01:40:41;;;;;;;;;3.00;3.00;;;;;24.09;51.89;98722.00;4900320;28;102515;-91
2022/08/03 01:43:12;;;;;;;;;3.00;3.00;;;;;24.08;51.88;98728.63;4941247;28;102210;-92
2022/08/03 01:45:40;;;;;;;;;3.00;3.00;;;;;24.05;51.78;98721.72;4940662;28;102690;-92
2022/08/03 01:48:07;;;;;;;;;4.00;4.00;;;;;24.04;51.87;98722.84;4926131;28;104625;-92
2022/08/03 01:50:34;;;;;;;;;1.67;1.67;;;;;24.05;51.88;98720.88;4941949;28;102723;-92
2022/08/03 01:53:01;;;;;;;;;6.00;5.00;;;;;24.02;51.80;98723.13;4911998;28;102518;-92
2022/08/03 01:55:28;;;;;;;;;4.33;4.33;;;;;24.04;51.90;98720.09;4943630;28;102748;-93
2022/08/03 01:57:55;;;;;;;;;4.33;3.00;;;;;24.04;52.06;98727.53;4941867;28;105331;-92
2022/08/03 02:00:31;;;;;;;;;3.33;3.33;;;;;24.02;52.16;98728.66;4942487;28;102585;-92
2022/08/03 02:02:58;;;;;;;;;2.67;2.67;;;;;24.02;52.03;98717.59;4923567;28;103183;-92
2022/08/03 02:05:26;;;;;;;;;3.00;3.00;;;;;24.00;52.01;98725.34;4928299;28;102236;-92
2022/08/03 02:07:53;;;;;;;;;4.67;4.67;;;;;23.96;52.07;98721.50;4926848;28;103326;-92
2022/08/03 02:10:20;;;;;;;;;2.67;2.67;;;;;23.96;52.20;98713.22;4941647;28;102364;-92
2022/08/03 02:13:01;;;;;;;;;3.67;3.67;;;;;23.98;51.73;98726.75;4929257;28;102429;-93
2022/08/03 02:15:29;;;;;;;;;3.67;3.67;;;;;23.95;52.21;98719.88;4947780;28;102247;-92
2022/08/03 02:17:56;;;;;;;;;3.00;3.00;;;;;23.96;51.91;98715.13;4945253;28;104102;-92
2022/08/03 02:20:23;;;;;;;;;4.33;4.33;;;;;23.97;51.96;98720.38;4915663;28;102164;-93
2022/08/03 02:22:50;;;;;;;;;4.00;4.00;;;;;23.98;52.17;98730.34;4947860;28;102680;-92
2022/08/03 02:25:17;;;;;;;;;4.00;4.00;;;;;24.00;51.77;98736.38;4947341;28;102458;-92
2022/08/03 02:27:52;;;;;;;;;4.00;4.00;;;;;24.00;52.21;98724.53;4912773;28;104094;-92
2022/08/03 02:30:19;;;;;;;;;3.33;3.33;;;;;23.97;51.88;98717.63;4909215;28;102032;-92
2022/08/03 02:32:50;;;;;;;;;4.00;4.00;;;;;23.97;52.19;98725.09;4931454;28;102518;-92
2022/08/03 02:35:18;;;;;;;;;3.00;2.67;;;;;23.97;52.06;98725.09;4942475;28;102193;-92
2022/08/03 02:37:49;;;;;;;;;4.00;4.00;;;;;23.99;52.19;98723.72;4941114;28;104577;-92
2022/08/03 02:40:17;;;;;;;;;4.00;3.33;;;;;23.95;51.96;98721.81;4925726;28;102147;-92
2022/08/03 02:42:45;;;;;;;;;3.67;3.67;;;;;23.97;52.17;98722.31;4927456;28;102087;-93
2022/08/03 02:45:13;;;;;;;;;3.67;3.67;;;;;23.95;51.96;98719.88;4948414;28;102774;-92
2022/08/03 02:47:40;;;;;;;;;3.33;3.33;;;;;23.93;52.15;98718.47;4944985;28;105307;-92
2022/08/03 02:50:20;;;;;;;;;3.00;3.00;;;;;23.91;52.05;98716.00;4919708;28;102203;-92
2022/08/03 02:52:48;;;;;;;;;3.00;3.00;;;;;23.91;52.14;98709.66;4946333;28;102468;-93
2022/08/03 02:55:15;;;;;;;;;4.00;4.00;;;;;23.89;52.12;98718.22;4896823;28;102424;-92
2022/08/03 02:57:42;;;;;;;;;3.67;3.00;;;;;23.90;52.19;98721.81;4942359;28;104057;-92
2022/08/03 03:00:10;;;;;;;;;4.33;4.33;;;;;23.91;51.94;98727.03;4931527;28;102119;-93
2022/08/03 03:02:37;;;;;;;;;3.33;3.33;;;;;23.94;51.95;98726.50;4915253;28;102615;-92
2022/08/03 03:05:09;;;;;;;;;5.67;4.67;;;;;23.95;52.12;98722.63;4925572;28;102484;-92
2022/08/03 03:07:56;;;;;;;;;4.67;4.00;;;;;23.93;51.88;98729.53;4941127;28;109729;-91
2022/08/03 03:10:23;;;;;;;;;5.00;3.00;;;;;23.93;51.92;98729.53;4944329;28;102579;-93
2022/08/03 03:12:52;;;;;;;;;5.33;5.00;;;;;23.90;51.96;98725.41;4941788;28;102541;-92
2022/08/03 03:15:20;;;;;;;;;4.00;4.00;;;;;23.89;51.94;98725.69;4930538;28;102571;-92
2022/08/03 03:17:48;;;;;;;;;4.00;4.00;;;;;23.88;51.93;98722.09;4925984;28;104099;-92
2022/08/03 03:20:15;;;;;;;;;5.00;4.00;;;;;23.88;51.96;98727.63;4916188;28;102242;-92
2022/08/03 03:22:57;;;;;;;;;5.33;5.00;;;;;23.85;52.20;98728.19;4925203;28;103686;-92
2022/08/03 03:25:24;;;;;;;;;4.00;4.00;;;;;23.87;52.07;98731.47;4946151;28;102657;-92
2022/08/03 03:27:52;;;;;;;;;5.00;5.00;;;;;23.88;52.28;98735.91;4944185;28;104253;-92
2022/08/03 03:30:19;;;;;;;;;5.67;5.67;;;;;23.88;52.12;98737.84;4929622;28;102337;-92
2022/08/03 03:32:46;;;;;;;;;5.00;4.00;;;;;23.84;52.04;98732.06;4930253;28;102310;-92
2022/08/03 03:35:13;;;;;;;;;4.33;4.00;;;;;23.83;52.22;98735.09;4930418;28;102963;-93
2022/08/03 03:37:40;;;;;;;;;6.67;5.00;;;;;23.84;52.05;98748.63;4925700;28;104111;-93
2022/08/03 03:40:08;;;;;;;;;5.00;5.00;;;;;23.84;52.31;98742.28;4926221;28;102104;-93
2022/08/03 03:42:37;;;;;;;;;4.67;4.67;;;;;23.84;52.04;98742.28;4941831;28;102090;-91
2022/08/03 03:45:07;;;;;;;;;4.33;4.33;;;;;23.87;52.00;98747.22;4927887;28;102155;-91
2022/08/03 03:47:34;;;;;;;;;3.00;2.67;;;;;23.88;52.20;98746.13;4928382;28;104184;-93
2022/08/03 03:50:05;;;;;;;;;4.67;4.00;;;;;23.91;51.78;98742.81;4927020;28;109374;-92
2022/08/03 03:52:32;;;;;;;;;4.00;4.00;;;;;23.87;51.95;98739.78;4944193;28;102169;-92
2022/08/03 03:54:59;;;;;;;;;4.00;4.00;;;;;23.91;51.93;98754.66;4940346;28;102803;-92
2022/08/03 03:57:28;;;;;;;;;6.00;5.67;;;;;23.86;51.84;98745.59;4931725;28;103238;-91
2022/08/03 03:59:55;;;;;;;;;5.00;5.00;;;;;23.86;51.94;98742.84;4944069;28;102234;-91
2022/08/03 04:02:22;;;;;;;;;5.67;5.00;;;;;23.85;51.92;98739.25;4944812;28;102217;-90
2022/08/03 04:10:59;;;;;;;;;6.33;6.00;;;;;23.83;52.17;98746.16;4919332;28;102280;-91
2022/08/03 04:13:38;;;;;;;;;6.67;6.00;;;;;23.81;51.77;98749.22;4941356;28;102188;-92
2022/08/03 04:16:06;;;;;;;;;4.67;4.67;;;;;23.85;51.76;98750.28;4926145;28;102625;-92
2022/08/03 04:18:34;;;;;;;;;3.67;3.67;;;;;23.86;51.71;98753.88;4924256;28;103855;-92
2022/08/03 04:21:03;;;;;;;;;9.33;8.67;;;;;23.61;49.02;98763.09;4923899;28;102370;-92
2022/08/03 04:23:32;;;;;;;;;11.00;11.00;;;;;23.18;49.22;98763.75;4940830;28;102342;-92
2022/08/03 04:26:01;;;;;;;;;13.00;11.67;;;;;23.22;49.91;98762.06;4924499;28;102162;-93
2022/08/03 04:28:29;;;;;;;;;12.67;10.67;;;;;23.36;50.16;98768.66;4940940;28;104682;-92
2022/08/03 04:31:00;;;;;;;;;14.67;14.00;;;;;23.44;50.52;98777.22;4926859;28;102404;-93
2022/08/03 04:33:28;;;;;;;;;13.67;13.67;;;;;23.49;50.35;98771.69;4941364;28;102311;-92
2022/08/03 04:35:57;;;;;;;;;13.00;13.00;;;;;23.48;50.63;98771.97;4942606;28;103422;-92
2022/08/03 04:38:32;;;;;;;;;14.33;13.33;;;;;23.50;50.94;98776.13;4926817;28;104613;-93
2022/08/03 04:40:59;;;;;;;;;12.00;11.00;;;;;23.56;50.61;98782.44;4909671;28;102255;-92
2022/08/03 04:43:27;;;;;;;;;13.00;12.33;;;;;23.55;50.35;98781.59;4918904;28;103111;-93
2022/08/03 04:45:56;;;;;;;;;12.67;12.00;;;;;23.54;50.46;98779.13;4903387;28;102730;-93
2022/08/03 04:48:23;;;;;;;;;12.00;11.00;;;;;23.55;50.37;98778.84;4928670;28;104222;-93
2022/08/03 04:50:51;;;;;;;;;15.00;13.67;;;;;23.54;50.65;98774.44;4916234;28;102668;-93
2022/08/03 04:53:18;;;;;;;;;15.00;13.33;;;;;23.60;49.98;98783.50;4904908;28;102586;-93
2022/08/03 04:55:45;;;;;;;;;13.33;12.00;;;;;23.59;50.42;98784.66;4914667;28;102414;-93
2022/08/03 04:58:12;;;;;;;;;12.67;12.00;;;;;23.59;50.68;98786.56;4925730;28;105434;-92
2022/08/03 05:00:39;;;;;;;;;14.33;14.00;;;;;23.59;50.39;98778.28;4899759;28;102747;-92
2022/08/03 05:03:06;;;;;;;;;12.67;12.67;;;;;23.57;50.56;98786.84;4923953;28;105151;-93
2022/08/03 05:05:54;;;;;;;;;12.67;12.67;;;;;23.58;50.47;98784.91;4938747;28;103719;-93
2022/08/03 05:08:37;;;;;;;;;13.33;12.00;;;;;23.56;50.50;98779.66;4939985;28;104401;-92
2022/08/03 05:11:14;;;;;;;;;12.00;12.00;;;;;23.57;50.53;98786.84;4925856;28;102452;-92
2022/08/03 05:13:41;;;;;;;;;12.00;12.00;;;;;23.55;50.56;98781.59;4928323;28;102736;-93
2022/08/03 05:16:08;;;;;;;;;14.67;13.00;;;;;23.59;50.65;98787.41;4913969;28;102381;-92
2022/08/03 05:18:35;;;;;;;;;12.67;12.67;;;;;23.59;50.76;98783.81;4943507;28;103905;-93
2022/08/03 05:21:06;;;;;;;;;12.67;12.33;;;;;23.53;50.74;98778.31;4926752;28;102876;-93
2022/08/03 05:23:33;;;;;;;;;13.00;12.00;;;;;23.55;50.67;98784.34;4945821;28;102394;-92
2022/08/03 05:26:00;;;;;;;;;15.00;13.00;;;;;23.56;50.79;98779.66;4922907;28;102571;-93
2022/08/03 05:28:27;;;;;;;;;14.00;11.33;;;;;23.60;50.77;98783.50;4928547;28;104355;-92
2022/08/03 05:30:54;;;;;;;;;12.00;12.00;;;;;23.64;50.36;98787.34;4932598;28;102474;-93
2022/08/03 05:33:21;;;;;;;;;12.67;12.00;;;;;23.64;50.58;98781.84;4933218;28;103149;-92
2022/08/03 05:35:48;;;;;;;;;13.00;11.33;;;;;23.64;50.35;98792.09;4935543;28;102227;-93
2022/08/03 05:38:30;;;;;;;;;13.00;13.00;;;;;23.61;50.38;98787.09;4931133;28;106702;-93
2022/08/03 05:41:02;;;;;;;;;13.00;13.00;;;;;23.65;50.52;98788.19;4932250;28;102108;-92
2022/08/03 05:43:53;;;;;;;;;10.33;10.33;;;;;23.65;50.39;98800.06;4932482;28;102532;-92
2022/08/03 05:46:23;;;;;;;;;10.00;10.00;;;;;23.62;50.56;98789.59;4917767;28;102465;-94
2022/08/03 05:48:50;;;;;;;;;14.00;12.67;;;;;23.64;50.44;98790.13;4947008;28;109934;-93
2022/08/03 05:51:18;;;;;;;;;11.67;11.67;;;;;23.61;50.49;98787.09;4932662;28;102183;-93
2022/08/03 05:53:45;;;;;;;;;12.00;12.00;;;;;23.64;50.42;98790.13;4947104;28;102299;-93
2022/08/03 05:56:12;;;;;;;;;12.00;11.00;;;;;23.62;50.51;98792.34;4947488;28;102882;-93
2022/08/03 05:58:43;;;;;;;;;11.00;10.33;;;;;23.66;50.53;98787.91;4931562;28;103839;-93
2022/08/03 06:01:10;;;;;;;;;10.67;10.67;;;;;23.64;50.56;98779.06;4946889;28;102654;-93
2022/08/03 06:03:37;;;;;;;;;13.33;13.33;;;;;23.68;50.41;98788.47;4948525;28;102191;-92
2022/08/03 06:06:05;;;;;;;;;12.67;12.67;;;;;23.68;50.60;98791.25;4931995;28;102247;-93
2022/08/03 06:08:32;;;;;;;;;11.67;11.33;;;;;23.68;50.46;98788.47;4931389;28;104014;-93
2022/08/03 06:10:59;;;;;;;;;11.00;9.33;;;;;23.71;50.61;98798.94;4930667;28;101969;-93
2022/08/03 06:13:26;;;;;;;;;7.00;7.00;;;;;23.72;50.69;98789.56;4946260;28;102492;-92
2022/08/03 06:15:53;;;;;;;;;13.00;11.00;;;;;23.72;50.67;98788.75;4948539;28;102777;-93
2022/08/03 06:18:20;;;;;;;;;12.33;11.00;;;;;23.71;50.47;98793.44;4936332;28;104063;-93
2022/08/03 06:20:47;;;;;;;;;10.00;10.00;;;;;23.74;50.65;98797.53;4930313;28;102643;-94
2022/08/03 06:23:17;;;;;;;;;13.33;11.67;;;;;23.74;50.55;98801.13;4899885;28;102396;-93
2022/08/03 06:25:45;;;;;;;;;11.67;11.00;;;;;23.73;50.63;98796.72;4914913;28;102272;-93
2022/08/03 06:28:17;;;;;;;;;10.00;10.00;;;;;23.71;50.44;98793.44;4930943;28;105288;-93
2022/08/03 06:31:04;;;;;;;;;11.00;11.00;;;;;23.75;50.50;98800.03;4940347;28;102688;-93
2022/08/03 06:33:32;;;;;;;;;8.33;8.33;;;;;23.73;50.64;98802.25;4946022;28;103075;-93
2022/08/03 06:36:19;;;;;;;;;10.00;9.00;;;;;23.71;50.75;98798.94;4932783;28;102554;-92
2022/08/03 06:38:46;;;;;;;;;10.67;10.67;;;;;23.74;50.64;98798.38;4928479;28;105409;-93
2022/08/03 06:41:13;;;;;;;;;10.33;9.67;;;;;23.73;50.80;98799.47;4931935;28;103612;-93
2022/08/03 06:43:41;;;;;;;;;11.67;11.67;;;;;23.74;50.65;98803.91;4935372;28;102228;-93
2022/08/03 06:46:28;;;;;;;;;10.67;10.00;;;;;23.73;50.48;98802.25;4917606;28;102684;-93
2022/08/03 06:48:55;;;;;;;;;10.00;10.00;;;;;23.76;50.68;98807.22;4929411;28;105425;-92
2022/08/03 06:51:22;;;;;;;;;10.67;10.67;;;;;23.78;50.64;98810.50;4936806;28;102632;-93
2022/08/03 06:54:09;;;;;;;;;9.67;9.67;;;;;23.80;50.34;98810.25;4932315;28;102499;-93
2022/08/03 06:56:36;;;;;;;;;7.33;6.67;;;;;23.81;50.38;98807.22;4947656;28;103441;-92
2022/08/03 06:59:04;;;;;;;;;11.00;9.33;;;;;23.79;50.18;98803.88;4929848;28;105096;-92
2022/08/03 07:01:31;;;;;;;;;10.33;10.33;;;;;23.83;50.37;98813.25;4936716;28;102362;-93
2022/08/03 07:03:59;;;;;;;;;10.00;10.00;;;;;23.81;50.42;98804.44;4936245;28;102535;-91
2022/08/03 07:06:26;;;;;;;;;11.33;10.00;;;;;23.81;50.30;98807.22;4935925;28;102674;-91
2022/08/03 07:08:53;;;;;;;;;9.00;9.00;;;;;23.82;50.32;98808.84;4932104;28;104901;-93
2022/08/03 07:11:25;;;;;;;;;9.67;9.33;;;;;23.82;50.23;98806.06;4937026;28;102684;-91
2022/08/03 07:13:52;;;;;;;;;10.33;10.33;;;;;23.81;50.41;98804.44;4926804;28;102162;-94
2022/08/03 07:16:19;;;;;;;;;9.00;9.00;;;;;23.82;50.37;98800.56;4934586;28;102233;-92
2022/08/03 07:18:46;;;;;;;;;10.67;10.00;;;;;23.82;50.51;98800.56;4928213;28;104366;-92
2022/08/03 07:21:15;;;;;;;;;8.00;8.00;;;;;23.85;50.39;98800.00;4929072;28;102636;-93
2022/08/03 07:23:42;;;;;;;;;11.67;10.33;;;;;23.83;50.27;98807.72;4929848;28;102673;-92
2022/08/03 07:26:10;;;;;;;;;11.33;10.00;;;;;23.85;50.51;98800.00;4929706;28;102302;-93
2022/08/03 07:28:37;;;;;;;;;8.00;8.00;;;;;23.86;50.45;98804.44;4934100;28;105454;-92
2022/08/03 07:31:04;;;;;;;;;9.33;9.00;;;;;23.86;50.30;98804.44;4945008;28;102636;-93
2022/08/03 07:33:31;;;;;;;;;9.00;9.00;;;;;23.86;50.34;98804.44;4930187;28;102700;-93
2022/08/03 07:35:58;;;;;;;;;8.33;8.00;;;;;23.86;50.79;98801.66;4932194;28;102745;-94
2022/08/03 07:38:25;;;;;;;;;12.33;11.00;;;;;23.88;50.28;98799.44;4944980;28;105303;-93
2022/08/03 07:40:53;;;;;;;;;9.67;9.00;;;;;23.86;50.14;98790.63;4945716;28;102189;-93
2022/08/03 07:43:20;;;;;;;;;11.33;9.67;;;;;23.90;50.30;98794.47;4931717;28;102242;-93
2022/08/03 07:45:47;;;;;;;;;9.67;8.67;;;;;23.90;50.17;98796.41;4940257;28;102658;-93
2022/08/03 07:48:14;;;;;;;;;5.00;5.00;;;;;23.88;50.38;98791.16;4928984;28;105507;-93
2022/08/03 07:50:41;;;;;;;;;10.00;10.00;;;;;23.91;50.49;98792.53;4894390;28;102284;-92
2022/08/03 07:53:08;;;;;;;;;8.00;8.00;;;;;23.92;50.23;98800.53;4946123;28;102861;-92
2022/08/03 07:55:35;;;;;;;;;9.00;9.00;;;;;23.91;50.16;98800.81;4881586;28;102882;-93
2022/08/03 07:58:08;;;;;;;;;8.67;8.33;;;;;23.90;50.32;98793.63;4929235;28;104017;-93
2022/08/03 08:00:35;;;;;;;;;8.00;7.00;;;;;23.90;50.19;98791.69;4940269;28;102598;-92
2022/08/03 08:03:03;;;;;;;;;9.33;9.33;;;;;23.91;50.28;98796.09;4929671;28;102724;-92
2022/08/03 08:05:30;;;;;;;;;12.00;10.00;;;;;23.94;50.17;98792.78;4929926;28;102415;-93
2022/08/03 08:07:57;;;;;;;;;10.00;10.00;;;;;23.92;50.13;98795.00;4943788;28;105036;-93
2022/08/03 08:10:24;;;;;;;;;10.33;8.33;;;;;23.93;50.17;98791.13;4896067;28;102964;-93
2022/08/03 08:12:52;;;;;;;;;9.67;9.00;;;;;23.96;50.14;98795.25;4930225;28;102831;-93
2022/08/03 08:15:19;;;;;;;;;8.00;8.00;;;;;23.95;50.18;98793.63;4913233;28;102339;-93
2022/08/03 08:17:46;;;;;;;;;10.00;9.67;;;;;23.98;50.40;98798.56;4929797;28;103511;-93
2022/08/03 08:20:21;;;;;;;;;9.00;8.00;;;;;23.98;50.12;98804.91;4943867;28;102638;-93
2022/08/03 08:22:56;;;;;;;;;9.00;9.00;;;;;23.98;50.20;98793.88;4926555;28;102140;-92
2022/08/03 08:25:24;;;;;;;;;11.00;11.00;;;;;23.95;50.23;98796.38;4945612;28;103798;-93
2022/08/03 08:27:51;;;;;;;;;7.33;7.33;;;;;23.97;50.17;98796.91;4930876;28;105346;-93
2022/08/03 08:30:38;;;;;;;;;9.67;8.67;;;;;23.99;50.37;98814.88;4925102;28;102404;-92
2022/08/03 08:33:05;;;;;;;;;10.00;9.00;;;;;23.97;50.22;98802.44;4925650;28;102564;-92
2022/08/03 08:35:36;;;;;;;;;10.33;10.33;;;;;23.96;50.23;98801.59;4927412;28;102879;-93
2022/08/03 08:38:03;;;;;;;;;10.67;9.00;;;;;23.97;50.15;98800.50;4929926;28;105220;-92
2022/08/03 08:40:31;;;;;;;;;11.00;9.33;;;;;23.98;50.15;98804.91;4945443;28;102765;-95
2022/08/03 08:42:58;;;;;;;;;9.00;8.33;;;;;24.00;50.04;98801.88;4921724;28;102920;-93
2022/08/03 08:45:26;;;;;;;;;8.00;8.00;;;;;24.00;49.89;98807.41;4931495;28;103312;-93
2022/08/03 08:47:54;;;;;;;;;6.67;6.33;;;;;24.00;50.02;98808.22;4914805;28;105356;-93
2022/08/03 08:50:27;;;;;;;;;9.00;8.00;;;;;23.99;50.48;98809.34;4944758;28;102532;-93
2022/08/03 08:52:54;;;;;;;;;8.00;8.00;;;;;24.01;50.16;98804.34;4927366;28;102167;-94
2022/08/03 08:55:22;;;;;;;;;11.00;10.00;;;;;24.04;50.09;98808.50;4931503;28;102545;-92
2022/08/03 08:57:51;;;;;;;;;9.00;9.00;;;;;24.04;50.18;98802.97;4927828;28;108766;-93
2022/08/03 09:00:18;;;;;;;;;7.33;7.33;;;;;24.04;50.17;98802.13;4930484;28;102539;-93
2022/08/03 09:02:46;;;;;;;;;10.00;8.00;;;;;24.07;50.31;98809.84;4944061;28;102327;-93
2022/08/03 09:05:17;;;;;;;;;9.00;9.00;;;;;24.06;50.30;98808.19;4919538;28;104455;-92
2022/08/03 09:07:57;;;;;;;;;9.00;8.67;;;;;24.07;50.22;98807.09;4935645;28;110549;-93
2022/08/03 09:10:24;;;;;;;;;9.00;8.00;;;;;24.08;49.99;98806.81;4928744;28;102291;-92
2022/08/03 09:12:51;;;;;;;;;10.00;8.33;;;;;24.10;49.99;98803.75;4929969;28;102513;-93
2022/08/03 09:15:24;;;;;;;;;8.00;8.00;;;;;24.11;50.15;98800.72;4925975;28;102318;-94
2022/08/03 09:17:52;;;;;;;;;7.00;7.00;;;;;24.10;50.18;98806.50;4927081;28;108928;-93
2022/08/03 09:20:20;;;;;;;;;9.00;8.00;;;;;24.11;50.20;98802.66;4896661;28;102587;-92
2022/08/03 09:22:54;;;;;;;;;8.33;8.00;;;;;24.15;50.04;98801.78;4941773;28;105462;-93
2022/08/03 09:25:35;;;;;;;;;9.00;9.00;;;;;24.14;49.92;98805.66;4910682;28;102392;-92
2022/08/03 09:28:10;;;;;;;;;9.00;8.00;;;;;24.13;49.76;98789.38;4935606;28;108938;-92
2022/08/03 09:30:39;;;;;;;;;9.00;9.00;;;;;24.17;49.90;98799.63;4913375;28;102267;-93
2022/08/03 09:33:07;;;;;;;;;9.67;8.67;;;;;24.18;49.77;98797.69;4893553;28;102171;-92
2022/08/03 09:36:00;;;;;;;;;9.00;9.00;;;;;24.19;49.75;98799.31;4927155;28;102553;-92
2022/08/03 09:38:27;;;;;;;;;8.00;8.00;;;;;24.21;49.82;98791.56;4900489;28;109884;-92
2022/08/03 09:40:55;;;;;;;;;7.67;7.67;;;;;24.22;49.96;98801.53;4942762;28;102221;-93
2022/08/03 09:43:26;;;;;;;;;6.00;6.00;;;;;24.20;49.96;98795.44;4926723;28;102502;-93
2022/08/03 09:46:14;;;;;;;;;9.33;8.33;;;;;24.21;50.00;98797.94;4924333;28;103173;-92
2022/08/03 09:48:41;;;;;;;;;8.00;7.00;;;;;24.22;49.71;98790.47;4926237;28;104060;-93
2022/08/03 09:51:09;;;;;;;;;7.67;7.33;;;;;24.24;49.93;98782.72;4942559;28;102045;-93
2022/08/03 09:54:00;;;;;;;;;8.00;7.67;;;;;24.23;49.92;98783.81;4938402;28;102208;-93
2022/08/03 09:56:44;;;;;;;;;9.67;8.33;;;;;24.23;49.94;98784.63;4943106;28;103320;-93
2022/08/03 09:59:13;;;;;;;;;7.00;6.33;;;;;24.23;49.97;98775.53;4932176;28;102987;-91
2022/08/03 10:01:40;;;;;;;;;6.33;6.00;;;;;24.24;49.76;98779.94;4913989;28;102673;-91
2022/08/03 10:04:12;;;;;;;;;9.00;8.33;;;;;24.30;49.67;98784.34;4944406;28;102024;-91
2022/08/03 10:06:40;;;;;;;;;8.67;7.33;;;;;24.28;49.81;98775.50;4927460;28;102366;-93
2022/08/03 10:09:08;;;;;;;;;7.00;7.00;;;;;24.30;49.91;98776.88;4924725;28;105468;-93
2022/08/03 10:11:36;;;;;;;;;8.00;8.00;;;;;24.30;49.56;98781.56;4943412;28;102323;-93
2022/08/03 10:14:09;;;;;;;;;7.00;7.00;;;;;24.34;49.53;98782.66;4940242;28;102052;-93
2022/08/03 10:16:38;;;;;;;;;6.33;6.33;;;;;24.35;49.70;98778.78;4898682;28;102319;-92
2022/08/03 10:19:06;;;;;;;;;5.67;5.33;;;;;24.32;49.66;98776.56;4929380;28;104100;-92
2022/08/03 10:21:37;;;;;;;;;7.33;6.67;;;;;24.36;49.83;98777.69;4898147;28;103659;-93
2022/08/03 10:24:06;;;;;;;;;9.00;8.00;;;;;24.36;49.69;98783.22;4897375;28;102665;-93
2022/08/03 10:26:37;;;;;;;;;8.33;7.33;;;;;24.34;49.54;98780.72;4915300;28;105503;-92
2022/08/03 10:29:20;;;;;;;;;6.67;6.67;;;;;24.36;49.77;98772.16;4930493;28;105387;-93
2022/08/03 10:31:47;;;;;;;;;7.67;7.67;;;;;24.35;49.66;98781.53;4897258;28;102375;-93
2022/08/03 10:34:26;;;;;;;;;6.00;6.00;;;;;24.35;49.79;98773.25;4925973;28;102063;-93
2022/08/03 10:36:56;;;;;;;;;6.67;6.00;;;;;24.35;49.64;98771.31;4932538;28;104992;-93
2022/08/03 10:39:24;;;;;;;;;10.00;10.00;;;;;24.37;49.34;98771.00;4891499;28;109317;-92
2022/08/03 10:41:51;;;;;;;;;8.00;8.00;;;;;24.38;49.31;98769.91;4913230;28;102626;-93
2022/08/03 10:44:19;;;;;;;;;7.33;7.00;;;;;24.40;49.49;98770.47;4924347;28;102732;-92
2022/08/03 10:46:49;;;;;;;;;7.33;7.33;;;;;24.38;49.90;98770.75;4938487;28;102202;-92
2022/08/03 10:49:17;;;;;;;;;6.67;6.67;;;;;24.37;49.58;98762.72;4944570;28;105660;-93
2022/08/03 10:52:00;;;;;;;;;6.00;6.00;;;;;24.38;49.75;98754.16;4926118;28;102884;-93
2022/08/03 10:57:33;;;;;;;;;7.67;7.00;;;;;24.43;49.30;98759.66;4930067;28;102275;-94
2022/08/03 10:57:44;;;;;;;;;9.00;7.67;;;;;24.44;49.56;98760.47;4929377;28;102229;-93
2022/08/03 11:00:25;;;;;;;;;8.00;7.00;;;;;24.46;49.29;98769.28;4894996;28;105160;-92
2022/08/03 11:03:09;;;;;;;;;7.33;6.67;;;;;24.44;49.48;98754.94;4941788;28;102791;-93
2022/08/03 11:05:47;;;;;;;;;6.00;6.00;;;;;24.46;49.65;98755.47;4907735;28;102489;-93
2022/08/03 11:08:18;;;;;;;;;6.67;6.67;;;;;24.49;49.67;98760.44;4945096;28;102746;-93
2022/08/03 11:10:46;;;;;;;;;7.00;6.00;;;;;24.49;49.46;98765.97;4929427;28;104361;-92
2022/08/03 11:13:17;;;;;;;;;6.67;6.67;;;;;24.48;49.36;98757.97;4944536;28;102605;-93
2022/08/03 11:15:45;;;;;;;;;8.00;8.00;;;;;24.50;49.41;98756.53;4928813;28;102443;-93
2022/08/03 11:18:13;;;;;;;;;6.00;5.67;;;;;24.50;49.62;98761.25;4929814;28;102368;-93
2022/08/03 11:20:54;;;;;;;;;6.00;6.00;;;;;24.51;49.36;98762.91;4928071;28;104265;-93
2022/08/03 11:23:57;;;;;;;;;5.33;5.00;;;;;24.50;49.46;98745.50;4931137;28;102253;-93
2022/08/03 11:26:32;;;;;;;;;7.00;6.67;;;;;24.51;49.48;98744.38;4848384;28;102362;-92
2022/08/03 11:29:28;;;;;;;;;6.67;5.67;;;;;24.52;49.38;98731.38;4900100;28;102227;-93
2022/08/03 11:31:55;;;;;;;;;7.67;7.00;;;;;24.52;49.42;98745.22;4921570;28;110146;-92
2022/08/03 11:34:23;;;;;;;;;6.00;6.00;;;;;24.53;49.36;98733.88;4932176;28;102415;-93
2022/08/03 11:37:21;;;;;;;;;6.33;6.33;;;;;24.55;49.42;98739.91;4909497;28;102265;-93
2022/08/03 11:39:51;;;;;;;;;6.00;6.00;;;;;24.52;49.45;98734.97;4943161;28;102508;-93
2022/08/03 11:42:21;;;;;;;;;6.00;6.00;;;;;24.58;49.38;98731.06;4927475;28;105078;-92
2022/08/03 11:44:49;;;;;;;;;7.00;6.00;;;;;24.55;49.29;98737.16;4942009;28;102301;-92